Time;durP1;ratioP1;P1;durP2;ratioP2;P2;SDS_P1;SDS_P2;PMS_P1;PMS_P2;Temp;Humidity;BMP_temperature;BMP_pressure;BME280_temperature;BME280_humidity;BME280_pressure;Samples;Min_cycle;Max_cycle;Signal;HPM_P1;HPM_P2
2022/08/25 00:01:54;;;;;;;12.25;4.80;;;;;;;24.15;69.35;101279.41;5040867;28;20058;-78
2022/08/25 00:04:22;;;;;;;11.23;4.85;;;;;;;24.12;68.84;101275.50;5038911;28;20167;-79
2022/08/25 00:06:49;;;;;;;9.32;4.70;;;;;;;24.06;68.98;101274.56;5037533;28;20048;-76
2022/08/25 00:09:20;;;;;;;12.70;4.95;;;;;;;24.06;68.70;101276.63;5034410;28;20049;-80
2022/08/25 00:11:48;;;;;;;8.27;4.43;;;;;;;23.99;69.62;101279.78;5036780;28;20060;-78
2022/08/25 00:14:36;;;;;;;14.15;4.35;;;;;;;23.98;70.29;101286.69;5046757;28;20052;-78
2022/08/25 00:17:03;;;;;;;8.68;4.57;;;;;;;23.95;69.55;101290.47;5042111;28;20894;-77
2022/08/25 00:19:34;;;;;;;10.55;4.38;;;;;;;23.89;70.80;101289.53;5038878;28;20061;-79
2022/08/25 00:22:01;;;;;;;10.38;5.13;;;;;;;23.82;70.79;101290.63;5030420;28;20049;-76
2022/08/25 00:24:29;;;;;;;10.52;4.40;;;;;;;23.81;70.23;101291.91;5035896;28;20521;-78
2022/08/25 00:26:57;;;;;;;11.65;4.40;;;;;;;23.75;70.50;101287.34;5044463;28;20055;-79
2022/08/25 00:29:25;;;;;;;12.23;6.00;;;;;;;23.68;70.83;101282.81;5039601;28;20052;-78
2022/08/25 00:31:53;;;;;;;10.70;4.45;;;;;;;23.64;71.28;101287.84;5029794;28;20081;-79
2022/08/25 00:34:28;;;;;;;11.68;4.30;;;;;;;23.60;72.10;101280.78;5030282;28;20056;-79
2022/08/25 00:36:55;;;;;;;11.90;4.57;;;;;;;23.56;72.10;101292.25;5040525;28;20056;-80
2022/08/25 00:39:23;;;;;;;7.03;4.30;;;;;;;23.53;72.56;101298.06;5034606;28;20072;-79
2022/08/25 00:41:52;;;;;;;10.30;4.68;;;;;;;23.51;73.76;101286.44;5039140;28;20048;-80
2022/08/25 00:44:19;;;;;;;10.45;4.70;;;;;;;23.48;73.62;101293.81;5033742;28;20149;-77
2022/08/25 00:46:49;;;;;;;10.13;4.45;;;;;;;23.44;72.91;101290.38;5041687;28;20057;-78
2022/08/25 00:49:27;;;;;;;10.80;4.60;;;;;;;23.40;75.58;101291.78;5039213;28;20568;-76
2022/08/25 00:52:19;;;;;;;11.13;5.25;;;;;;;23.37;74.90;101281.44;5035748;28;20045;-78
2022/08/25 00:54:45;;;;;;;8.45;5.25;;;;;;;23.31;74.80;101292.56;5033729;28;20048;-78
2022/08/25 00:57:15;;;;;;;9.05;5.03;;;;;;;23.27;74.06;101286.31;5047670;28;20048;-78
2022/08/25 00:59:43;;;;;;;11.65;4.30;;;;;;;23.25;73.88;101285.97;5051245;28;20054;-80
2022/08/25 01:02:11;;;;;;;10.60;4.70;;;;;;;23.22;74.47;101295.38;5051253;28;20049;-79
2022/08/25 01:04:40;;;;;;;13.18;5.55;;;;;;;23.20;74.64;101286.59;5041661;28;20056;-83
2022/08/25 01:07:17;;;;;;;10.75;4.95;;;;;;;23.15;74.91;101290.03;5046938;28;20135;-78
2022/08/25 01:09:46;;;;;;;14.82;4.63;;;;;;;23.09;76.29;101279.84;5044665;28;20057;-76
2022/08/25 01:12:13;;;;;;;10.88;4.82;;;;;;;23.08;75.20;101292.41;5049659;28;20493;-79
2022/08/25 01:14:43;;;;;;;11.80;4.75;;;;;;;23.07;75.95;101288.78;5053973;28;20683;-79
2022/08/25 01:17:10;;;;;;;10.35;4.93;;;;;;;23.03;76.50;101284.53;5057694;28;20127;-79
2022/08/25 01:19:37;;;;;;;11.18;4.60;;;;;;;23.03;75.50;101287.34;5062117;28;20132;-78
2022/08/25 01:22:04;;;;;;;14.02;5.18;;;;;;;22.96;76.09;101280.00;5055525;28;20048;-78
2022/08/25 01:24:51;;;;;;;13.25;5.32;;;;;;;22.95;76.04;101281.25;5059742;28;20063;-82
2022/08/25 01:27:18;;;;;;;8.52;4.95;;;;;;;22.89;76.10;101280.31;5056314;28;20044;-82
2022/08/25 01:29:44;;;;;;;14.35;5.07;;;;;;;22.83;76.69;101285.00;5059061;28;20151;-81
2022/08/25 01:32:13;;;;;;;15.38;4.65;;;;;;;22.81;77.13;101286.72;5045983;28;20052;-79
2022/08/25 01:34:43;;;;;;;12.38;5.32;;;;;;;22.78;76.28;101288.44;5057998;28;20063;-78
2022/08/25 01:37:12;;;;;;;12.85;5.05;;;;;;;22.73;76.90;101287.03;5065150;28;20055;-79
2022/08/25 01:39:40;;;;;;;12.70;5.28;;;;;;;22.73;76.97;101287.03;5067950;28;20127;-79
2022/08/25 01:42:08;;;;;;;9.45;4.55;;;;;;;22.74;75.92;101276.50;5056366;28;20124;-75
2022/08/25 01:44:38;;;;;;;11.30;5.18;;;;;;;22.70;75.68;101279.50;5058085;28;20057;-77
2022/08/25 01:47:06;;;;;;;10.27;4.68;;;;;;;22.67;76.44;101273.97;5059081;28;20087;-75
2022/08/25 01:49:33;;;;;;;12.48;4.88;;;;;;;22.66;76.17;101281.69;5067063;28;20319;-78
2022/08/25 01:52:15;;;;;;;8.50;4.45;;;;;;;22.63;77.76;101279.78;5062001;28;20055;-75
2022/08/25 01:54:42;;;;;;;10.30;5.22;;;;;;;22.61;76.98;101285.09;5058348;28;20408;-75
2022/08/25 01:57:09;;;;;;;9.93;5.13;;;;;;;22.57;77.42;101283.66;5060864;28;20174;-76
2022/08/25 01:59:36;;;;;;;10.52;4.78;;;;;;;22.53;77.61;101285.84;5063430;28;20424;-77
2022/08/25 02:02:05;;;;;;;10.05;5.20;;;;;;;22.52;77.53;101287.13;5062902;28;20051;-75
2022/08/25 02:04:31;;;;;;;10.48;5.20;;;;;;;22.45;78.02;101279.69;5067087;28;20071;-76
2022/08/25 02:07:02;;;;;;;14.75;5.13;;;;;;;22.47;78.24;101279.22;5065022;28;20048;-76
2022/08/25 02:09:29;;;;;;;11.88;4.60;;;;;;;22.45;78.32;101281.75;5063493;28;20048;-79
2022/08/25 02:11:56;;;;;;;9.63;4.78;;;;;;;22.43;77.86;101279.38;5059432;28;20436;-78
2022/08/25 02:14:24;;;;;;;11.65;5.25;;;;;;;22.39;77.12;101281.56;5061469;28;20055;-81
2022/08/25 02:16:52;;;;;;;10.93;5.28;;;;;;;22.31;78.47;101273.88;5062976;28;20073;-80
2022/08/25 02:19:21;;;;;;;12.85;5.45;;;;;;;22.29;78.16;101284.81;5075286;28;20127;-76
2022/08/25 02:21:48;;;;;;;10.88;5.22;;;;;;;22.25;78.70;101278.53;5064388;28;20047;-79
2022/08/25 02:24:14;;;;;;;12.00;5.05;;;;;;;22.22;80.12;101290.72;5067712;28;20115;-79
2022/08/25 02:26:42;;;;;;;15.13;5.00;;;;;;;22.18;79.50;101288.03;5062627;28;20052;-76
2022/08/25 02:29:09;;;;;;;18.55;4.95;;;;;;;22.14;78.84;101289.44;5059883;28;20099;-77
2022/08/25 02:31:36;;;;;;;11.65;5.35;;;;;;;22.12;78.63;101297.56;5052134;28;20048;-79
2022/08/25 02:34:03;;;;;;;12.98;5.18;;;;;;;22.08;79.27;101292.09;5051105;28;20045;-76
2022/08/25 02:36:31;;;;;;;10.57;4.85;;;;;;;22.05;79.03;101286.59;5062459;28;20049;-77
2022/08/25 02:38:57;;;;;;;9.38;5.32;;;;;;;22.05;79.31;101289.41;5065580;28;20051;-75
2022/08/25 02:41:25;;;;;;;9.30;4.82;;;;;;;22.01;80.24;101285.94;5066627;28;20048;-76
2022/08/25 02:43:58;;;;;;;11.43;4.90;;;;;;;22.00;79.88;101290.78;5063087;28;20121;-76
2022/08/25 02:46:26;;;;;;;10.45;5.40;;;;;;;21.99;78.85;101294.84;5054481;28;20076;-76
2022/08/25 02:48:53;;;;;;;10.70;4.63;;;;;;;21.97;79.25;101296.56;5067551;28;20055;-77
2022/08/25 02:51:21;;;;;;;14.95;5.05;;;;;;;21.91;79.81;101295.59;5058939;28;20139;-80
2022/08/25 02:53:48;;;;;;;14.27;5.10;;;;;;;21.88;79.53;101293.69;5059846;28;20132;-78
2022/08/25 02:56:17;;;;;;;11.75;5.30;;;;;;;21.87;79.53;101300.59;5059616;28;20504;-75
2022/08/25 02:58:44;;;;;;;11.27;5.13;;;;;;;21.81;81.50;101289.13;5052141;28;20572;-78
2022/08/25 03:01:13;;;;;;;11.00;5.03;;;;;;;21.79;82.01;101291.59;5054182;28;20052;-78
2022/08/25 03:03:41;;;;;;;9.80;5.05;;;;;;;21.76;81.48;101286.88;5053710;28;20099;-78
2022/08/25 03:06:12;;;;;;;12.30;5.32;;;;;;;21.76;82.18;101289.72;5053988;28;20106;-77
2022/08/25 03:08:41;;;;;;;10.38;5.75;;;;;;;21.76;80.98;101292.53;5065723;28;20547;-77
2022/08/25 03:11:08;;;;;;;11.48;5.40;;;;;;;21.72;82.03;101289.06;5055152;28;20053;-78
2022/08/25 03:13:36;;;;;;;14.25;6.00;;;;;;;21.72;81.98;101288.25;5059029;28;20136;-79
2022/08/25 03:16:04;;;;;;;14.35;5.03;;;;;;;21.69;81.94;101284.31;5059290;28;20049;-78
2022/08/25 03:18:37;;;;;;;12.70;5.35;;;;;;;21.68;81.50;101279.94;5062521;28;20044;-76
2022/08/25 03:21:04;;;;;;;10.88;5.40;;;;;;;21.67;82.06;101278.34;5056593;28;20049;-74
2022/08/25 03:23:31;;;;;;;13.85;5.97;;;;;;;21.61;82.64;101274.56;5059989;28;20048;-77
2022/08/25 03:28:43;;;;;;;8.93;4.68;;;;;;;21.59;83.04;101262.97;5063316;28;20045;-80
2022/08/25 03:31:09;;;;;;;12.20;5.35;;;;;;;21.60;82.03;101255.31;5057435;28;20078;-78
2022/08/25 03:33:37;;;;;;;14.13;4.93;;;;;;;21.56;81.96;101254.69;5053138;28;20099;-76
2022/08/25 03:36:05;;;;;;;12.60;5.35;;;;;;;21.51;82.65;101256.03;5059114;28;20392;-78
2022/08/25 03:38:31;;;;;;;12.13;5.38;;;;;;;21.48;82.71;101258.97;5061457;28;20488;-76
2022/08/25 03:40:58;;;;;;;10.63;5.18;;;;;;;21.44;82.68;101255.53;5064648;28;20163;-77
2022/08/25 03:43:25;;;;;;;10.82;5.68;;;;;;;21.41;82.57;101259.25;5058872;28;20052;-77
2022/08/25 03:45:51;;;;;;;13.15;5.60;;;;;;;21.41;83.93;101256.44;5064092;28;20060;-78
2022/08/25 03:48:18;;;;;;;16.02;5.60;;;;;;;21.38;83.48;101246.09;5061697;28;20076;-77
2022/08/25 03:50:50;;;;;;;13.95;6.25;;;;;;;21.36;83.53;101248.59;5062197;28;20053;-76
2022/08/25 03:53:19;;;;;;;13.70;5.28;;;;;;;21.30;83.53;101254.03;5065542;28;20079;-76
2022/08/25 03:55:46;;;;;;;13.65;5.70;;;;;;;21.31;84.42;101249.16;5061038;28;20049;-77
2022/08/25 03:58:13;;;;;;;13.38;5.40;;;;;;;21.30;83.34;101253.22;5059285;28;20064;-76
2022/08/25 04:00:40;;;;;;;13.40;5.50;;;;;;;21.26;82.77;101247.72;5059305;28;20050;-77
2022/08/25 04:03:07;;;;;;;12.30;5.50;;;;;;;21.24;84.50;101252.25;5063958;28;20072;-75
2022/08/25 04:05:34;;;;;;;13.30;5.80;;;;;;;21.21;84.78;101256.75;5060112;28;20135;-77
2022/08/25 04:08:00;;;;;;;15.65;5.80;;;;;;;21.17;84.35;101255.31;5065612;28;20128;-79
2022/08/25 04:10:30;;;;;;;13.25;5.88;;;;;;;21.15;85.28;101249.34;5056268;28;20088;-77
2022/08/25 04:12:57;;;;;;;10.25;5.50;;;;;;;21.14;85.60;101254.22;5047886;28;20045;-76
2022/08/25 04:15:24;;;;;;;15.52;6.32;;;;;;;21.14;85.26;101251.41;5054788;28;20140;-77
2022/08/25 04:17:57;;;;;;;19.08;6.35;;;;;;;21.14;84.45;101250.59;5055424;28;20135;-76
2022/08/25 04:20:24;;;;;;;14.02;6.68;;;;;;;21.11;84.79;101245.88;5055235;28;20048;-75
2022/08/25 04:22:51;;;;;;;13.30;5.82;;;;;;;21.04;84.45;101241.31;5055123;28;20044;-77
2022/08/25 04:25:18;;;;;;;14.45;5.53;;;;;;;21.03;85.27;101244.56;5057578;28;20052;-78
2022/08/25 04:27:45;;;;;;;14.98;5.60;;;;;;;20.98;86.03;101245.13;5052174;28;20045;-76
2022/08/25 04:30:12;;;;;;;17.85;6.15;;;;;;;20.92;86.78;101232.88;5050408;28;20083;-78
2022/08/25 04:32:38;;;;;;;13.18;6.07;;;;;;;20.89;86.10;101231.75;5061336;28;20136;-76
2022/08/25 04:35:06;;;;;;;16.10;6.20;;;;;;;20.90;87.13;101238.97;5060148;28;20050;-79
2022/08/25 04:37:33;;;;;;;13.18;5.80;;;;;;;20.87;86.49;101231.44;5064264;28;20506;-76
2022/08/25 04:40:00;;;;;;;17.48;6.45;;;;;;;20.87;86.92;101230.63;5066841;28;20048;-78
2022/08/25 04:42:27;;;;;;;13.48;6.57;;;;;;;20.85;87.25;101222.66;5059417;28;20041;-77
2022/08/25 04:44:54;;;;;;;14.68;5.70;;;;;;;20.84;87.71;101228.72;5063934;28;21479;-81
2022/08/25 04:47:20;;;;;;;14.05;5.68;;;;;;;20.83;87.69;101227.97;5065795;28;20063;-76
2022/08/25 04:49:47;;;;;;;13.27;5.82;;;;;;;20.84;87.94;101229.53;5055959;28;20055;-75
2022/08/25 04:52:14;;;;;;;12.73;6.18;;;;;;;20.81;88.83;101226.81;5062969;28;20083;-78
2022/08/25 04:54:42;;;;;;;11.80;6.22;;;;;;;20.83;88.61;101224.34;5067424;28;20401;-77
2022/08/25 04:57:09;;;;;;;13.38;6.18;;;;;;;20.87;87.60;101236.25;5064926;28;20053;-75
2022/08/25 04:59:36;;;;;;;13.35;5.95;;;;;;;20.87;87.52;101237.06;5066888;28;20132;-77
2022/08/25 05:02:04;;;;;;;17.05;6.93;;;;;;;20.87;88.37;101251.13;5060549;28;20056;-79
2022/08/25 05:04:33;;;;;;;11.90;6.05;;;;;;;20.85;87.92;101244.38;5062255;28;20083;-76
2022/08/25 05:07:00;;;;;;;17.10;6.22;;;;;;;20.91;88.19;101243.34;5062660;28;20471;-75
2022/08/25 05:09:27;;;;;;;12.18;6.03;;;;;;;20.92;88.31;101242.09;5053052;28;20140;-76
2022/08/25 05:11:57;;;;;;;16.00;6.07;;;;;;;20.93;87.65;101245.69;5061698;28;20393;-77
2022/08/25 05:14:24;;;;;;;16.63;7.68;;;;;;;20.92;88.09;101239.28;5059020;28;20037;-76
2022/08/25 05:16:53;;;;;;;14.02;6.70;;;;;;;21.00;88.17;101242.66;5058678;28;20064;-76
2022/08/25 05:19:22;;;;;;;13.07;7.22;;;;;;;21.02;87.65;101243.00;5059982;28;20136;-75
2022/08/25 05:21:49;;;;;;;17.42;6.75;;;;;;;21.07;87.97;101243.22;5054217;28;20869;-77
2022/08/25 05:24:15;;;;;;;21.40;8.43;;;;;;;21.16;87.47;101242.50;5065611;28;20420;-76
2022/08/25 05:26:42;;;;;;;21.02;7.38;;;;;;;21.17;86.95;101236.41;5061083;28;20140;-76
2022/08/25 05:29:09;;;;;;;17.95;7.13;;;;;;;21.24;87.00;101243.78;5067019;28;20052;-77
2022/08/25 05:31:36;;;;;;;14.95;7.53;;;;;;;21.31;86.31;101243.53;5059820;28;20471;-77
2022/08/25 05:34:08;;;;;;;13.30;6.78;;;;;;;21.39;86.20;101245.63;5055285;28;20057;-75
2022/08/25 05:36:35;;;;;;;18.00;6.97;;;;;;;21.47;85.29;101240.53;5062048;28;20049;-77
2022/08/25 05:39:03;;;;;;;17.80;7.55;;;;;;;21.53;85.31;101241.50;5067452;28;20143;-72
2022/08/25 05:41:30;;;;;;;14.77;6.68;;;;;;;21.60;84.67;101238.44;5062248;28;20139;-74
2022/08/25 05:43:57;;;;;;;17.13;7.10;;;;;;;21.66;84.52;101243.00;5059762;28;20047;-71
2022/08/25 05:46:24;;;;;;;15.43;7.22;;;;;;;21.74;84.52;101243.53;5064731;28;20615;-76
2022/08/25 05:48:53;;;;;;;17.95;7.88;;;;;;;21.83;83.73;101232.31;5060119;28;20057;-73
2022/08/25 05:51:19;;;;;;;15.63;7.15;;;;;;;21.90;83.43;101240.50;5061199;28;20049;-72
2022/08/25 05:53:49;;;;;;;16.05;6.72;;;;;;;21.97;83.21;101234.59;5061341;28;20048;-71
2022/08/25 05:56:17;;;;;;;16.25;7.30;;;;;;;22.04;82.69;101232.25;5059030;28;20059;-76
2022/08/25 05:58:45;;;;;;;14.07;6.45;;;;;;;22.11;82.76;101228.38;5063527;28;20144;-73
2022/08/25 06:04:23;;;;;;;12.70;6.43;;;;;;;22.26;82.48;101227.34;5055527;28;20052;-73
2022/08/25 06:06:52;;;;;;;18.08;7.60;;;;;;;22.32;81.96;101227.50;5067077;28;20131;-71
2022/08/25 06:09:23;;;;;;;18.00;7.45;;;;;;;22.36;81.91;101219.69;5068984;28;20779;-73
2022/08/25 06:11:50;;;;;;;14.98;7.13;;;;;;;22.47;81.77;101228.47;5064569;28;20044;-72
2022/08/25 06:14:21;;;;;;;15.38;6.85;;;;;;;22.54;81.40;101223.34;5057067;28;20110;-75
2022/08/25 06:16:50;;;;;;;15.35;7.43;;;;;;;22.62;81.10;101227.44;5056722;28;20051;-73
2022/08/25 06:19:17;;;;;;;16.83;6.63;;;;;;;22.68;80.98;101219.91;5057083;28;20098;-71
2022/08/25 06:21:44;;;;;;;19.30;7.07;;;;;;;22.78;80.62;101226.38;5055226;28;20052;-75
2022/08/25 06:24:11;;;;;;;15.95;6.85;;;;;;;22.86;80.39;101224.81;5065553;28;20124;-74
2022/08/25 06:26:41;;;;;;;17.27;7.10;;;;;;;22.98;79.91;101242.84;5062477;28;20421;-73
2022/08/25 06:29:07;;;;;;;19.75;7.15;;;;;;;23.05;79.93;101231.25;5067193;28;20052;-73
2022/08/25 06:31:34;;;;;;;15.68;7.00;;;;;;;23.11;79.51;101220.91;5064475;28;20440;-76
2022/08/25 06:34:00;;;;;;;19.33;7.53;;;;;;;23.18;79.46;101235.44;5056501;28;20049;-75
2022/08/25 06:36:27;;;;;;;17.58;6.90;;;;;;;23.26;79.57;101235.97;5061367;28;20148;-74
2022/08/25 06:38:53;;;;;;;15.32;6.45;;;;;;;23.32;79.47;101226.38;5068214;28;20076;-74
2022/08/25 06:41:20;;;;;;;18.80;7.18;;;;;;;23.42;78.92;101230.75;5055018;28;20071;-78
2022/08/25 06:43:47;;;;;;;14.95;6.90;;;;;;;23.52;78.68;101229.47;5054809;28;20053;-73
2022/08/25 06:46:22;;;;;;;16.50;7.32;;;;;;;23.63;78.44;101234.66;5061700;28;20121;-76
2022/08/25 06:49:04;;;;;;;15.95;6.35;;;;;;;23.72;78.04;101240.28;5055995;28;20045;-73
2022/08/25 06:51:31;;;;;;;16.25;6.32;;;;;;;23.79;77.84;101234.28;5054419;28;20083;-77
2022/08/25 06:53:59;;;;;;;18.38;6.68;;;;;;;23.89;77.13;101245.06;5060373;28;20045;-75
2022/08/25 06:56:25;;;;;;;15.80;6.50;;;;;;;24.01;76.99;101243.34;5060813;28;20045;-73
2022/08/25 06:58:52;;;;;;;17.80;6.50;;;;;;;24.10;76.46;101246.13;5062223;28;20072;-74
2022/08/25 07:01:22;;;;;;;19.13;6.75;;;;;;;24.18;75.86;101239.66;5056589;28;20713;-77
2022/08/25 07:03:56;;;;;;;16.50;6.55;;;;;;;24.31;75.84;101245.09;5062785;28;20393;-71
2022/08/25 07:06:24;;;;;;;18.00;6.93;;;;;;;24.40;75.17;101236.56;5057046;28;20468;-71
2022/08/25 07:08:50;;;;;;;15.88;6.22;;;;;;;24.48;74.88;101247.03;5064321;28;20072;-70
2022/08/25 07:11:20;;;;;;;13.25;5.78;;;;;;;24.59;74.26;101235.19;5056457;28;20504;-71
2022/08/25 07:13:47;;;;;;;16.90;6.13;;;;;;;24.70;73.79;101239.06;5055687;28;20049;-73
2022/08/25 07:16:15;;;;;;;15.18;6.13;;;;;;;24.79;73.25;101247.50;5057338;28;20136;-72
2022/08/25 07:18:43;;;;;;;16.80;6.20;;;;;;;24.88;72.95;101241.75;5062949;28;20052;-74
2022/08/25 07:21:12;;;;;;;16.45;5.82;;;;;;;24.97;72.51;101244.53;5058882;28;20469;-74
2022/08/25 07:23:40;;;;;;;13.70;5.40;;;;;;;25.06;72.16;101244.47;5055412;28;20139;-76
2022/08/25 07:26:17;;;;;;;12.63;5.95;;;;;;;25.11;71.36;101240.94;5061433;28;20144;-77
2022/08/25 07:29:16;;;;;;;16.98;6.57;;;;;;;25.22;70.52;101242.44;5063948;28;20489;-79
2022/08/25 07:31:43;;;;;;;13.25;5.95;;;;;;;25.32;70.53;101241.91;5059682;28;20136;-76
2022/08/25 07:36:56;;;;;;;12.45;5.97;;;;;;;25.53;69.21;101242.78;5062058;28;20053;-75
2022/08/25 07:39:23;;;;;;;16.98;5.72;;;;;;;25.63;69.02;101236.53;5063189;28;20048;-75
2022/08/25 07:41:51;;;;;;;11.43;5.47;;;;;;;25.73;68.60;101231.56;5050346;28;20852;-75
2022/08/25 07:44:20;;;;;;;14.27;5.78;;;;;;;25.84;67.56;101228.91;5041101;28;20057;-75
2022/08/25 07:46:47;;;;;;;13.07;5.55;;;;;;;25.91;67.63;101228.53;5041939;28;20099;-75
2022/08/25 07:49:17;;;;;;;13.23;5.35;;;;;;;26.02;66.78;101235.16;5040977;28;20125;-75
2022/08/25 07:51:50;;;;;;;12.27;5.15;;;;;;;26.13;66.18;101234.56;5040816;28;20793;-74
2022/08/25 07:54:33;;;;;;;14.23;5.75;;;;;;;26.24;65.88;101226.22;5046064;28;20056;-77
2022/08/25 07:57:02;;;;;;;16.52;5.93;;;;;;;26.32;65.35;101225.31;5035672;28;20131;-75
2022/08/25 07:59:29;;;;;;;14.55;5.72;;;;;;;26.43;64.84;101234.00;5042726;28;20309;-75
2022/08/25 08:02:09;;;;;;;15.23;5.18;;;;;;;26.52;64.75;101221.75;5039806;28;20137;-79
2022/08/25 08:04:47;;;;;;;10.68;5.57;;;;;;;26.64;64.26;101226.31;5040889;28;20198;-73
2022/08/25 08:07:19;;;;;;;13.27;5.85;;;;;;;26.69;63.73;101214.25;5040838;28;20048;-79
2022/08/25 08:09:46;;;;;;;16.40;6.50;;;;;;;26.84;63.44;101221.44;5035869;28;20071;-74
2022/08/25 08:12:22;;;;;;;13.98;6.10;;;;;;;26.98;63.27;101217.72;5032609;28;20055;-77
2022/08/25 08:14:50;;;;;;;14.43;6.05;;;;;;;27.07;62.72;101216.78;5043375;28;20086;-74
2022/08/25 08:17:17;;;;;;;9.75;5.20;;;;;;;27.13;62.64;101214.78;5040460;28;20056;-74
2022/08/25 08:19:43;;;;;;;11.93;5.35;;;;;;;27.23;61.31;101222.66;5037770;28;20562;-74
2022/08/25 08:22:15;;;;;;;11.20;5.35;;;;;;;27.32;61.16;101233.09;5039763;28;20053;-74
2022/08/25 08:24:44;;;;;;;14.57;5.68;;;;;;;27.39;60.39;101224.91;5041315;28;20044;-74
2022/08/25 08:27:22;;;;;;;18.45;6.13;;;;;;;27.48;60.59;101228.84;5040404;28;20415;-73
2022/08/25 08:29:48;;;;;;;15.43;6.20;;;;;;;27.60;60.32;101224.84;5046857;28;20136;-73
2022/08/25 08:32:16;;;;;;;13.05;5.72;;;;;;;27.71;59.91;101219.25;5055532;28;20121;-73
2022/08/25 08:34:45;;;;;;;13.27;6.38;;;;;;;27.82;58.74;101228.66;5053187;28;20049;-72
2022/08/25 08:37:17;;;;;;;15.05;6.30;;;;;;;27.89;59.10;101228.25;5057886;28;20341;-72
2022/08/25 08:39:46;;;;;;;12.68;6.65;;;;;;;28.02;58.63;101220.06;5060667;28;20387;-72
2022/08/25 08:42:22;;;;;;;17.65;6.65;;;;;;;28.13;57.44;101210.81;5057568;28;20064;-73
2022/08/25 08:45:26;;;;;;;12.40;5.95;;;;;;;28.21;57.26;101201.31;5060877;28;20053;-73
2022/08/25 08:48:08;;;;;;;11.77;5.53;;;;;;;28.26;56.25;101197.72;5058804;28;20090;-73
2022/08/25 08:50:48;;;;;;;11.93;5.60;;;;;;;28.39;55.42;101188.75;5053040;28;20076;-73
2022/08/25 08:53:26;;;;;;;15.88;6.18;;;;;;;28.49;55.22;101193.75;5057060;28;20045;-74
2022/08/25 08:56:05;;;;;;;11.57;4.65;;;;;;;28.62;55.43;101184.75;5056030;28;20059;-74
2022/08/25 08:58:50;;;;;;;12.68;6.00;;;;;;;28.74;54.63;101175.72;5054450;28;20146;-74
2022/08/25 09:01:30;;;;;;;12.52;5.70;;;;;;;28.70;52.62;101178.06;5062812;28;20049;-71
2022/08/25 09:04:15;;;;;;;12.60;5.63;;;;;;;28.77;53.87;101168.22;5059031;28;20055;-72
2022/08/25 09:06:48;;;;;;;12.20;5.65;;;;;;;28.93;54.62;101176.06;5055653;28;20041;-73
2022/08/25 09:09:37;;;;;;;12.50;5.28;;;;;;;29.03;53.35;101171.72;5053992;28;20132;-72
2022/08/25 09:12:30;;;;;;;10.45;5.38;;;;;;;29.14;52.13;101172.53;5061023;28;20048;-72
2022/08/25 09:16:53;;;;;;;12.40;5.60;;;;;;;29.20;50.81;101175.38;5058856;28;20064;-72
2022/08/25 09:18:28;;;;;;;11.85;4.65;;;;;;;29.39;51.95;101173.59;5059705;28;20534;-72
2022/08/25 09:21:14;;;;;;;12.98;5.70;;;;;;;29.54;51.46;101174.91;5063725;28;20051;-73
2022/08/25 09:24:10;;;;;;;19.98;6.00;;;;;;;29.67;50.72;101166.63;5066501;28;20051;-73
2022/08/25 09:26:41;;;;;;;;;;;;;;;29.79;51.01;101164.53;5063822;28;20109;-73
2022/08/25 09:29:13;;;;;;;11.45;5.47;;;;;;;29.93;50.93;101157.03;5063788;28;19928;-72
2022/08/25 09:31:42;;;;;;;14.10;5.40;;;;;;;30.11;50.72;101160.09;5063283;28;20045;-72
2022/08/25 09:34:18;;;;;;;10.57;5.03;;;;;;;30.33;49.81;101159.31;5055496;28;20068;-72
2022/08/25 09:36:47;;;;;;;11.55;5.10;;;;;;;30.45;48.73;101152.22;5061028;28;20124;-72
2022/08/25 09:39:14;;;;;;;9.75;4.75;;;;;;;30.58;47.78;101147.53;5064484;28;20076;-72
2022/08/25 09:41:52;;;;;;;10.20;5.30;;;;;;;30.63;46.33;101143.84;5058289;28;20494;-73
2022/08/25 09:44:20;;;;;;;12.90;5.18;;;;;;;30.77;46.93;101142.75;5060734;28;20051;-72
2022/08/25 09:47:00;;;;;;;15.60;5.53;;;;;;;30.86;46.25;101133.13;5066770;28;20538;-73
2022/08/25 09:49:36;;;;;;;12.45;5.63;;;;;;;31.00;46.20;101141.34;5057443;28;20131;-73
2022/08/25 09:52:41;;;;;;;12.02;5.65;;;;;;;31.11;45.76;101131.94;5042322;28;20049;-73
2022/08/25 09:55:07;;;;;;;12.30;5.15;;;;;;;31.27;46.23;101122.47;5022069;28;20591;-73
2022/08/25 09:57:41;;;;;;;10.15;5.30;;;;;;;31.43;44.83;101119.50;5054358;28;20175;-72
2022/08/25 10:00:18;;;;;;;9.90;4.70;;;;;;;31.57;43.96;101120.41;5057603;28;20769;-73
2022/08/25 10:03:02;;;;;;;12.82;5.05;;;;;;;31.66;43.24;101120.06;5075601;28;20045;-72
2022/08/25 10:05:34;;;;;;;12.20;5.10;;;;;;;31.60;42.23;101111.53;5062739;28;20052;-73
2022/08/25 10:08:13;;;;;;;11.98;5.05;;;;;;;31.68;43.32;101100.28;5050319;28;20060;-72
2022/08/25 10:10:51;;;;;;;17.38;6.35;;;;;;;31.80;43.20;101102.53;5059293;28;20113;-73
2022/08/25 10:13:22;;;;;;;13.73;5.05;;;;;;;31.96;41.88;101100.81;5055871;28;20451;-73
2022/08/25 10:16:07;;;;;;;11.38;5.10;;;;;;;32.07;40.68;101094.94;5060653;28;20218;-72
2022/08/25 10:19:01;;;;;;;15.25;5.03;;;;;;;32.20;40.55;101094.28;5057900;28;20579;-73
2022/08/25 10:21:28;;;;;;;16.08;5.55;;;;;;;32.24;41.15;101094.75;5060844;28;20131;-73
2022/08/25 10:23:56;;;;;;;12.43;5.32;;;;;;;32.35;41.03;101097.53;5029212;28;20072;-73
2022/08/25 10:26:28;;;;;;;11.77;6.18;;;;;;;32.38;39.74;101088.59;5041677;28;20048;-72
2022/08/25 10:29:10;;;;;;;8.85;4.60;;;;;;;32.56;40.50;101081.34;5041735;28;20094;-73
2022/08/25 10:31:51;;;;;;;10.32;5.22;;;;;;;32.65;39.30;101076.00;5046616;28;20172;-72
2022/08/25 10:34:33;;;;;;;12.20;5.10;;;;;;;32.74;39.12;101083.44;5041961;28;20052;-72
2022/08/25 10:37:27;;;;;;;10.93;4.57;;;;;;;32.81;38.07;101066.41;5046365;28;20052;-73
2022/08/25 10:40:27;;;;;;;12.07;4.88;;;;;;;32.93;37.70;101067.78;5028230;28;20082;-74
2022/08/25 10:43:15;;;;;;;16.30;5.10;;;;;;;33.15;37.45;101064.59;5042652;28;20056;-73
2022/08/25 10:45:50;;;;;;;11.90;5.15;;;;;;;33.34;37.81;101053.81;5047387;28;20048;-73
2022/08/25 10:48:45;;;;;;;11.55;5.65;;;;;;;33.18;36.89;101059.84;5037773;28;20491;-73
2022/08/25 10:51:23;;;;;;;15.15;5.75;;;;;;;33.69;36.76;101061.31;5036117;28;20727;-74
2022/08/25 10:54:05;;;;;;;12.13;5.47;;;;;;;33.82;36.83;101055.59;5038842;28;20853;-73
2022/08/25 10:56:34;;;;;;;10.10;5.20;;;;;;;33.73;35.88;101051.06;5037992;28;20059;-73
2022/08/25 10:59:20;;;;;;;13.80;5.32;;;;;;;33.56;36.43;101044.84;5034078;28;20040;-71
2022/08/25 11:02:11;;;;;;;13.27;5.35;;;;;;;33.47;36.46;101051.00;5046294;28;20680;-72
2022/08/25 11:05:05;;;;;;;12.30;5.32;;;;;;;33.47;36.55;101039.53;5041064;28;20044;-73
2022/08/25 11:07:36;;;;;;;10.70;5.97;;;;;;;33.63;37.01;101041.31;5037635;28;20056;-73
2022/08/25 11:10:18;;;;;;;12.05;6.00;;;;;;;33.63;36.09;101029.84;5041559;28;20063;-73
2022/08/25 11:12:53;;;;;;;12.63;6.28;;;;;;;33.78;36.70;101026.44;5037778;28;20159;-73
2022/08/25 11:15:27;;;;;;;12.48;6.35;;;;;;;33.89;36.56;101023.38;5041871;28;20063;-72
2022/08/25 11:18:02;;;;;;;11.70;5.78;;;;;;;34.10;36.66;101027.88;5047581;28;20048;-72
2022/08/25 11:20:39;;;;;;;14.38;6.15;;;;;;;34.28;36.05;101026.19;5047021;28;20053;-73
2022/08/25 11:23:26;;;;;;;14.23;6.00;;;;;;;34.38;35.37;101023.69;5039417;28;20048;-72
2022/08/25 11:25:59;;;;;;;11.20;5.68;;;;;;;34.43;35.49;101022.75;5041318;28;20074;-73
2022/08/25 11:28:38;;;;;;;11.90;6.23;;;;;;;34.61;35.31;101021.84;5032335;28;20057;-73
2022/08/25 11:31:08;;;;;;;10.40;5.43;;;;;;;34.75;35.23;101014.72;5033822;28;20083;-73
2022/08/25 11:33:38;;;;;;;10.43;6.00;;;;;;;34.76;35.10;101014.16;5048192;28;20095;-72
2022/08/25 11:36:27;;;;;;;12.55;5.88;;;;;;;34.76;34.35;101013.38;5044697;28;20334;-73
2022/08/25 11:39:14;;;;;;;11.50;5.60;;;;;;;34.96;34.18;101015.53;5036744;28;20816;-72
2022/08/25 11:41:52;;;;;;;13.05;5.38;;;;;;;34.99;34.03;101025.91;5039330;28;20803;-73
2022/08/25 11:44:50;;;;;;;15.20;6.55;;;;;;;35.00;34.40;101013.06;5041575;28;20048;-72
2022/08/25 11:47:34;;;;;;;14.00;6.07;;;;;;;35.13;33.83;101008.00;5041259;28;20140;-72